Buoy 16555

sailwx.info

Track history (hours):
 
Tides and Currents Weather Stations Pressure Air Temp Water Temp Dewpoint Dewpoint Depression Visibility Wind Speed Wind Dir Waves Ship Positions

Drifting buoy 16555

Last reported at 2018-Apr-25 15:00 UTC. Time now 2018-Apr-26 00:10 UTC.
Position S 18°22' E 095°51'.

Barometer 1016.2 mb
Water temperature 25.5 ° C

Date/timePositionNaut miles runAvg speedWind from/ knotsBaromVisibWave heightAir tempDewpointWater temp
2018-Apr-25 15:00S 18°22' E 095°51'1 0.8 1016.2 25.5
2018-Apr-25 14:00S 18°22' E 095°52'1 0.6 1016.1 25.5
2018-Apr-25 12:00S 18°23' E 095°52'1 0.7 1014.7 25.5
2018-Apr-25 10:00S 18°25' E 095°52'2 0.9 1013.9 25.6
2018-Apr-25 08:00S 18°26' E 095°52'5 0.8 1014.0 25.6
2018-Apr-25 02:00S 18°31' E 095°50'2 0.9 1016.6 25.4
2018-Apr-25 00:00S 18°32' E 095°49'1 1.3 1015.7 25.4
2018-Apr-24 23:00S 18°34' E 095°49'4 0.6 1015.2 25.4
2018-Apr-24 16:00S 18°37' E 095°46'0 0.0 1017.3 25.4
2018-Apr-24 15:00S 18°37' E 095°46'1 1.3 1017.5 25.4
2018-Apr-24 14:00S 18°38' E 095°46'1 0.3 1017.2 25.4
2018-Apr-24 12:00S 18°39' E 095°46'1 1.3 1016.2 25.4
2018-Apr-24 11:00S 18°40' E 095°45'1 0.6 1015.7 25.4
2018-Apr-24 10:00S 18°41' E 095°45'0 0.0 1015.4 25.4
2018-Apr-24 09:00S 18°41' E 095°45'5 0.7 1015.3 25.4
2018-Apr-24 02:00S 18°46' E 095°44'1 0.6 1017.1 25.2
2018-Apr-24 01:00S 18°46' E 095°44'2 2.4 1016.5 25.2
2018-Apr-24 00:00S 18°48' E 095°44'2 0.6 1015.6 25.1
2018-Apr-23 20:00S 18°50' E 095°44'4 3.8 1015.5 24.9
2018-Apr-23 19:00S 18°54' E 095°43'0 0.0 1015.9 24.9
2018-Apr-23 16:00S 18°54' E 095°43'1 0.6 1016.6 24.8
2018-Apr-23 15:00S 18°54' E 095°42'1 1.2 1016.6 24.8
2018-Apr-23 14:00S 18°55' E 095°42'0 0.0 1016.6 24.8
2018-Apr-23 13:00S 18°55' E 095°42'1 0.6 1016.1 24.8
2018-Apr-23 12:00S 18°56' E 095°42'1 0.8 1015.1 24.8
2018-Apr-23 11:00S 18°56' E 095°43'0 0.0 1014.8 24.8
2018-Apr-23 10:00S 18°56' E 095°43'5 0.8 1014.2 24.8
2018-Apr-23 03:00S 19°02' E 095°43'2 2.1 1016.0 24.8
2018-Apr-23 02:00S 19°04' E 095°41'1 0.6 1015.7 24.8
2018-Apr-23 01:00S 19°04' E 095°41'0 0.0 1015.1 24.8
2018-Apr-23 00:00S 19°04' E 095°41'0 0.0 1014.5 24.8
2018-Apr-22 23:00S 19°04' E 095°41'1 0.6 1014.0 24.8
2018-Apr-22 22:00S 19°05' E 095°41'2 0.9 1013.6 24.8
2018-Apr-22 20:00S 19°07' E 095°42'4 0.9 1013.7 24.9
2018-Apr-22 16:00S 19°10' E 095°41'1 1.3 1014.9 24.9
2018-Apr-22 15:00S 19°11' E 095°40'1 0.8 1015.2 24.9
2018-Apr-22 14:00S 19°12' E 095°40'2 1.7 1015.2 24.9
2018-Apr-22 13:00S 19°13' E 095°38'2 1.8 1014.8 24.9
2018-Apr-22 12:00S 19°15' E 095°38'0 0.0 1014.2 24.9
2018-Apr-22 11:00S 19°15' E 095°38'2 1.8 1013.9 24.9
2018-Apr-22 10:00S 19°17' E 095°38'0 0.0 1013.6 24.8
2018-Apr-22 09:00S 19°17' E 095°38'5 0.8 1013.5 24.8
2018-Apr-22 03:00S 19°22' E 095°37'2 1.2 1015.1 24.7
2018-Apr-22 01:00S 19°24' E 095°38'0 0.0 1014.0 24.7
2018-Apr-22 00:00S 19°24' E 095°38'1 1.3 1013.6 24.8
2018-Apr-21 23:00S 19°25' E 095°37'0 0.0 1013.3 24.8
2018-Apr-21 22:00S 19°25' E 095°37'5 0.8 1013.0 24.8
2018-Apr-21 15:00S 19°31' E 095°38'1 0.8 1014.0 24.9
2018-Apr-21 14:00S 19°31' E 095°38'0 0.0 1014.0 24.8
2018-Apr-21 13:00S 19°31' E 095°38'2 1.2 1013.5 24.9
2018-Apr-21 11:00S 19°34' E 095°39'1 0.8 1012.5 24.9
2018-Apr-21 10:00S 19°34' E 095°40'0 0.0 1012.5 24.9
2018-Apr-21 09:00S 19°34' E 095°40'6 6.0 1012.5 24.9
2018-Apr-21 08:00S 19°40' E 095°40'3 0.5 1012.3 24.9
2018-Apr-21 03:00S 19°43' E 095°41'1 0.3 1014.9 24.8
2018-Apr-21 01:00S 19°43' E 095°41'0 0.0 1014.0 24.8
2018-Apr-21 00:00S 19°43' E 095°41'2 1.8 1013.6 24.8
2018-Apr-20 23:00S 19°45' E 095°41'1 1.2 1013.1 24.8
2018-Apr-20 22:00S 19°46' E 095°41'0 0.0 1012.7 24.8
2018-Apr-20 21:00S 19°46' E 095°41'3 0.5 1012.7 24.8
2018-Apr-20 15:00S 19°49' E 095°43'1 0.6 1014.3 24.9
2018-Apr-20 13:00S 19°50' E 095°44'0 0.0 1014.0 25.0
2018-Apr-20 12:00S 19°50' E 095°44'1 0.8 1013.4 25.0
2018-Apr-20 11:00S 19°50' E 095°44'1 0.6 1012.9 25.0
2018-Apr-20 10:00S 19°51' E 095°44'6 1.0 1012.7 25.1
2018-Apr-20 04:00S 19°53' E 095°50'1 0.3 1014.1 25.0
2018-Apr-20 02:00S 19°53' E 095°51'1 1.3 1014.3 24.9
2018-Apr-20 01:00S 19°54' E 095°52'0 0.0 1014.1 24.9
2018-Apr-20 00:00S 19°54' E 095°52'0 0.0 1013.8 24.9
2018-Apr-19 23:00S 19°54' E 095°52'2 2.1 1013.3 25.0
2018-Apr-19 22:00S 19°55' E 095°54'3 0.5 1013.0 25.0
2018-Apr-19 16:00S 19°58' E 095°56'1 0.8 1014.3 25.1
2018-Apr-19 15:00S 19°57' E 095°56'1 0.8 1014.2 25.1
2018-Apr-19 14:00S 19°58' E 095°57'2 1.2 1014.2 25.1
2018-Apr-19 12:00S 19°58' E 095°59'0 0.0 1013.5 25.1
2018-Apr-19 11:00S 19°58' E 095°59'1 0.6 1013.1 25.1
2018-Apr-19 10:00S 19°59' E 095°59'0 0.0 1012.7 25.2
2018-Apr-19 09:00S 19°59' E 095°59'7 1.0 1012.6 25.2
2018-Apr-19 02:00S 20°01' E 096°07'1 1.1 1015.2 25.1
2018-Apr-19 01:00S 20°01' E 096°08'0 0.0 1014.8 25.1
2018-Apr-19 00:00S 20°01' E 096°08'1 0.6 1014.5 25.1
2018-Apr-18 23:00S 20°01' E 096°08'2 1.8 1014.1 25.1
2018-Apr-18 22:00S 20°01' E 096°10'0 0.0 1014.0 25.1
2018-Apr-18 21:00S 20°01' E 096°10'7 1.5 1014.4 25.1
2018-Apr-18 16:00S 20°04' E 096°17'0 0.0 1016.2 25.2
2018-Apr-18 15:00S 20°04' E 096°17'1 0.8 1016.3 25.3
2018-Apr-18 14:00S 20°05' E 096°18'1 1.1 1016.2 25.3
2018-Apr-18 13:00S 20°05' E 096°19'3 1.4 1015.9 25.3
2018-Apr-18 11:00S 20°07' E 096°22'0 0.0 1015.5 25.4
2018-Apr-18 10:00S 20°07' E 096°22'1 1.3 1015.3 25.4
2018-Apr-18 09:00S 20°07' E 096°23'0 0.0 1015.0 25.4
2018-Apr-18 08:00S 20°07' E 096°23'5 1.1 1015.2 25.4
2018-Apr-18 03:00S 20°09' E 096°28'4 1.8 1017.5 25.2
2018-Apr-18 01:00S 20°10' E 096°32'1 0.6 1017.3 25.2
2018-Apr-18 00:00S 20°11' E 096°32'4 1.8 1016.5 25.2
2018-Apr-17 22:00S 20°12' E 096°35'5 0.9 1016.2 25.2
2018-Apr-17 16:00S 20°14' E 096°40'2 1.7 1017.6 25.3
2018-Apr-17 15:00S 20°14' E 096°42'0 0.0 1017.6 25.3
2018-Apr-17 14:00S 20°14' E 096°42'3 2.6 1017.7 25.3
2018-Apr-17 13:00S 20°16' E 096°44'1 0.6 1017.2 25.3
2018-Apr-17 12:00S 20°16' E 096°45'2 2.3 1016.6 25.3
2018-Apr-17 11:00S 20°16' E 096°47'0 0.0 1016.1 25.4
2018-Apr-17 10:00S 20°16' E 096°47'2 1.2 1015.9 25.4
2018-Apr-17 08:00S 20°17' E 096°50'11 1.8 1016.0 25.4
2018-Apr-17 02:00S 20°20' E 097°01'1 0.6 1018.0 25.2
2018-Apr-17 01:00S 20°19' E 097°01'3 2.6 1017.3 25.2
2018-Apr-17 00:00S 20°20' E 097°03'0 0.0 1016.7 25.2
2018-Apr-16 23:00S 20°20' E 097°03'9 1.2 1016.5 25.2
2018-Apr-16 16:00S 20°24' E 097°11'1 0.8 1017.3 25.3
2018-Apr-16 15:00S 20°25' E 097°12'2 1.8 1017.3 25.3
2018-Apr-16 14:00S 20°25' E 097°14'1 0.6 1017.1 25.4
2018-Apr-16 13:00S 20°25' E 097°14'2 1.8 1016.3 25.4
2018-Apr-16 12:00S 20°26' E 097°16'1 0.6 1015.5 25.4
2018-Apr-16 10:00S 20°26' E 097°17'8 1.1 1014.9 25.5
2018-Apr-16 03:00S 20°29' E 097°25'1 0.6 1016.4 25.2
2018-Apr-16 02:00S 20°29' E 097°25'2 1.8 1016.3 25.2
2018-Apr-16 01:00S 20°30' E 097°27'3 1.0 1015.8 25.2
2018-Apr-15 22:00S 20°31' E 097°30'0 0.0 1013.4 25.2
2018-Apr-15 20:00S 20°31' E 097°30'4 0.8 1014.6 25.2
2018-Apr-15 15:00S 20°32' E 097°34'   1015.7 25.2
Track history (hours):
 
Tides and Currents Weather Stations Pressure Air Temp Water Temp Dewpoint Dewpoint Depression Visibility Wind Speed Wind Dir Waves Ship Positions

Drifting buoy 16555

Last reported at 2018-Apr-25 15:00 UTC. Time now 2018-Apr-26 00:10 UTC.
Position S 18°22' E 095°51'.

Barometer 1016.2 mb
Water temperature 25.5 ° C

Date/timePositionNaut miles runAvg speedWind from/ knotsBaromVisibWave heightAir tempDewpointWater temp
2018-Apr-25 15:00S 18°22' E 095°51'1 0.8 1016.2 25.5
2018-Apr-25 14:00S 18°22' E 095°52'1 0.6 1016.1 25.5
2018-Apr-25 12:00S 18°23' E 095°52'1 0.7 1014.7 25.5
2018-Apr-25 10:00S 18°25' E 095°52'2 0.9 1013.9 25.6
2018-Apr-25 08:00S 18°26' E 095°52'5 0.8 1014.0 25.6
2018-Apr-25 02:00S 18°31' E 095°50'2 0.9 1016.6 25.4
2018-Apr-25 00:00S 18°32' E 095°49'1 1.3 1015.7 25.4
2018-Apr-24 23:00S 18°34' E 095°49'4 0.6 1015.2 25.4
2018-Apr-24 16:00S 18°37' E 095°46'0 0.0 1017.3 25.4
2018-Apr-24 15:00S 18°37' E 095°46'1 1.3 1017.5 25.4
2018-Apr-24 14:00S 18°38' E 095°46'1 0.3 1017.2 25.4
2018-Apr-24 12:00S 18°39' E 095°46'1 1.3 1016.2 25.4
2018-Apr-24 11:00S 18°40' E 095°45'1 0.6 1015.7 25.4
2018-Apr-24 10:00S 18°41' E 095°45'0 0.0 1015.4 25.4
2018-Apr-24 09:00S 18°41' E 095°45'5 0.7 1015.3 25.4
2018-Apr-24 02:00S 18°46' E 095°44'1 0.6 1017.1 25.2
2018-Apr-24 01:00S 18°46' E 095°44'2 2.4 1016.5 25.2
2018-Apr-24 00:00S 18°48' E 095°44'2 0.6 1015.6 25.1
2018-Apr-23 20:00S 18°50' E 095°44'4 3.8 1015.5 24.9
2018-Apr-23 19:00S 18°54' E 095°43'0 0.0 1015.9 24.9
2018-Apr-23 16:00S 18°54' E 095°43'1 0.6 1016.6 24.8
2018-Apr-23 15:00S 18°54' E 095°42'1 1.2 1016.6 24.8
2018-Apr-23 14:00S 18°55' E 095°42'0 0.0 1016.6 24.8
2018-Apr-23 13:00S 18°55' E 095°42'1 0.6 1016.1 24.8
2018-Apr-23 12:00S 18°56' E 095°42'1 0.8 1015.1 24.8
2018-Apr-23 11:00S 18°56' E 095°43'0 0.0 1014.8 24.8
2018-Apr-23 10:00S 18°56' E 095°43'5 0.8 1014.2 24.8
2018-Apr-23 03:00S 19°02' E 095°43'2 2.1 1016.0 24.8
2018-Apr-23 02:00S 19°04' E 095°41'1 0.6 1015.7 24.8
2018-Apr-23 01:00S 19°04' E 095°41'0 0.0 1015.1 24.8
2018-Apr-23 00:00S 19°04' E 095°41'0 0.0 1014.5 24.8
2018-Apr-22 23:00S 19°04' E 095°41'1 0.6 1014.0 24.8
2018-Apr-22 22:00S 19°05' E 095°41'2 0.9 1013.6 24.8
2018-Apr-22 20:00S 19°07' E 095°42'4 0.9 1013.7 24.9
2018-Apr-22 16:00S 19°10' E 095°41'1 1.3 1014.9 24.9
2018-Apr-22 15:00S 19°11' E 095°40'1 0.8 1015.2 24.9
2018-Apr-22 14:00S 19°12' E 095°40'2 1.7 1015.2 24.9
2018-Apr-22 13:00S 19°13' E 095°38'2 1.8 1014.8 24.9
2018-Apr-22 12:00S 19°15' E 095°38'0 0.0 1014.2 24.9
2018-Apr-22 11:00S 19°15' E 095°38'2 1.8 1013.9 24.9
2018-Apr-22 10:00S 19°17' E 095°38'0 0.0 1013.6 24.8
2018-Apr-22 09:00S 19°17' E 095°38'5 0.8 1013.5 24.8
2018-Apr-22 03:00S 19°22' E 095°37'2 1.2 1015.1 24.7
2018-Apr-22 01:00S 19°24' E 095°38'0 0.0 1014.0 24.7
2018-Apr-22 00:00S 19°24' E 095°38'1 1.3 1013.6 24.8
2018-Apr-21 23:00S 19°25' E 095°37'0 0.0 1013.3 24.8
2018-Apr-21 22:00S 19°25' E 095°37'5 0.8 1013.0 24.8
2018-Apr-21 15:00S 19°31' E 095°38'1 0.8 1014.0 24.9
2018-Apr-21 14:00S 19°31' E 095°38'0 0.0 1014.0 24.8
2018-Apr-21 13:00S 19°31' E 095°38'2 1.2 1013.5 24.9
2018-Apr-21 11:00S 19°34' E 095°39'1 0.8 1012.5 24.9
2018-Apr-21 10:00S 19°34' E 095°40'0 0.0 1012.5 24.9
2018-Apr-21 09:00S 19°34' E 095°40'6 6.0 1012.5 24.9
2018-Apr-21 08:00S 19°40' E 095°40'3 0.5 1012.3 24.9
2018-Apr-21 03:00S 19°43' E 095°41'1 0.3 1014.9 24.8
2018-Apr-21 01:00S 19°43' E 095°41'0 0.0 1014.0 24.8
2018-Apr-21 00:00S 19°43' E 095°41'2 1.8 1013.6 24.8
2018-Apr-20 23:00S 19°45' E 095°41'1 1.2 1013.1 24.8
2018-Apr-20 22:00S 19°46' E 095°41'0 0.0 1012.7 24.8
2018-Apr-20 21:00S 19°46' E 095°41'3 0.5 1012.7 24.8
2018-Apr-20 15:00S 19°49' E 095°43'1 0.6 1014.3 24.9
2018-Apr-20 13:00S 19°50' E 095°44'0 0.0 1014.0 25.0
2018-Apr-20 12:00S 19°50' E 095°44'1 0.8 1013.4 25.0
2018-Apr-20 11:00S 19°50' E 095°44'1 0.6 1012.9 25.0
2018-Apr-20 10:00S 19°51' E 095°44'6 1.0 1012.7 25.1
2018-Apr-20 04:00S 19°53' E 095°50'1 0.3 1014.1 25.0
2018-Apr-20 02:00S 19°53' E 095°51'1 1.3 1014.3 24.9
2018-Apr-20 01:00S 19°54' E 095°52'0 0.0 1014.1 24.9
2018-Apr-20 00:00S 19°54' E 095°52'0 0.0 1013.8 24.9
2018-Apr-19 23:00S 19°54' E 095°52'2 2.1 1013.3 25.0
2018-Apr-19 22:00S 19°55' E 095°54'3 0.5 1013.0 25.0
2018-Apr-19 16:00S 19°58' E 095°56'1 0.8 1014.3 25.1
2018-Apr-19 15:00S 19°57' E 095°56'1 0.8 1014.2 25.1
2018-Apr-19 14:00S 19°58' E 095°57'2 1.2 1014.2 25.1
2018-Apr-19 12:00S 19°58' E 095°59'0 0.0 1013.5 25.1
2018-Apr-19 11:00S 19°58' E 095°59'1 0.6 1013.1 25.1
2018-Apr-19 10:00S 19°59' E 095°59'0 0.0 1012.7 25.2
2018-Apr-19 09:00S 19°59' E 095°59'7 1.0 1012.6 25.2
2018-Apr-19 02:00S 20°01' E 096°07'1 1.1 1015.2 25.1
2018-Apr-19 01:00S 20°01' E 096°08'0 0.0 1014.8 25.1
2018-Apr-19 00:00S 20°01' E 096°08'1 0.6 1014.5 25.1
2018-Apr-18 23:00S 20°01' E 096°08'2 1.8 1014.1 25.1
2018-Apr-18 22:00S 20°01' E 096°10'0 0.0 1014.0 25.1
2018-Apr-18 21:00S 20°01' E 096°10'7 1.5 1014.4 25.1
2018-Apr-18 16:00S 20°04' E 096°17'0 0.0 1016.2 25.2
2018-Apr-18 15:00S 20°04' E 096°17'1 0.8 1016.3 25.3
2018-Apr-18 14:00S 20°05' E 096°18'1 1.1 1016.2 25.3
2018-Apr-18 13:00S 20°05' E 096°19'3 1.4 1015.9 25.3
2018-Apr-18 11:00S 20°07' E 096°22'0 0.0 1015.5 25.4
2018-Apr-18 10:00S 20°07' E 096°22'1 1.3 1015.3 25.4
2018-Apr-18 09:00S 20°07' E 096°23'0 0.0 1015.0 25.4
2018-Apr-18 08:00S 20°07' E 096°23'5 1.1 1015.2 25.4
2018-Apr-18 03:00S 20°09' E 096°28'4 1.8 1017.5 25.2
2018-Apr-18 01:00S 20°10' E 096°32'1 0.6 1017.3 25.2
2018-Apr-18 00:00S 20°11' E 096°32'4 1.8 1016.5 25.2
2018-Apr-17 22:00S 20°12' E 096°35'5 0.9 1016.2 25.2
2018-Apr-17 16:00S 20°14' E 096°40'2 1.7 1017.6 25.3
2018-Apr-17 15:00S 20°14' E 096°42'0 0.0 1017.6 25.3
2018-Apr-17 14:00S 20°14' E 096°42'3 2.6 1017.7 25.3
2018-Apr-17 13:00S 20°16' E 096°44'1 0.6 1017.2 25.3
2018-Apr-17 12:00S 20°16' E 096°45'2 2.3 1016.6 25.3
2018-Apr-17 11:00S 20°16' E 096°47'0 0.0 1016.1 25.4
2018-Apr-17 10:00S 20°16' E 096°47'2 1.2 1015.9 25.4
2018-Apr-17 08:00S 20°17' E 096°50'11 1.8 1016.0 25.4
2018-Apr-17 02:00S 20°20' E 097°01'1 0.6 1018.0 25.2
2018-Apr-17 01:00S 20°19' E 097°01'3 2.6 1017.3 25.2
2018-Apr-17 00:00S 20°20' E 097°03'0 0.0 1016.7 25.2
2018-Apr-16 23:00S 20°20' E 097°03'9 1.2 1016.5 25.2
2018-Apr-16 16:00S 20°24' E 097°11'1 0.8 1017.3 25.3
2018-Apr-16 15:00S 20°25' E 097°12'2 1.8 1017.3 25.3
2018-Apr-16 14:00S 20°25' E 097°14'1 0.6 1017.1 25.4
2018-Apr-16 13:00S 20°25' E 097°14'2 1.8 1016.3 25.4
2018-Apr-16 12:00S 20°26' E 097°16'1 0.6 1015.5 25.4
2018-Apr-16 10:00S 20°26' E 097°17'8 1.1 1014.9 25.5
2018-Apr-16 03:00S 20°29' E 097°25'1 0.6 1016.4 25.2
2018-Apr-16 02:00S 20°29' E 097°25'2 1.8 1016.3 25.2
2018-Apr-16 01:00S 20°30' E 097°27'3 1.0 1015.8 25.2
2018-Apr-15 22:00S 20°31' E 097°30'0 0.0 1013.4 25.2
2018-Apr-15 20:00S 20°31' E 097°30'4 0.8 1014.6 25.2
2018-Apr-15 15:00S 20°32' E 097°34'   1015.7 25.2

Dump ship's entire track history